createdAt,value
2018-02-15T00:00:24.483Z,99.99
2018-02-15T00:01:24.213Z,99.99
2018-02-15T00:02:24.449Z,99.99
2018-02-15T00:03:24.434Z,99.99
2018-02-15T00:04:24.419Z,99.99
2018-02-15T00:05:24.145Z,99.99
2018-02-15T00:06:24.381Z,99.99
2018-02-15T00:07:24.369Z,99.95
2018-02-15T00:08:24.093Z,99.99
2018-02-15T00:09:24.329Z,99.99
2018-02-15T00:10:24.060Z,99.95
2018-02-15T00:11:24.043Z,99.99
2018-02-15T00:12:24.028Z,99.99
2018-02-15T00:13:24.263Z,99.99
2018-02-15T00:14:23.996Z,99.95
2018-02-15T00:15:24.231Z,99.99
2018-02-15T00:16:24.211Z,99.95
2018-02-15T00:17:24.198Z,99.95
2018-02-15T00:18:24.177Z,99.99
2018-02-15T00:19:24.172Z,99.99
2018-02-15T00:20:24.147Z,99.85
2018-02-15T00:21:23.875Z,99.95
2018-02-15T00:22:23.857Z,99.85
2018-02-15T00:23:24.098Z,99.99
2018-02-15T00:24:23.826Z,99.85
2018-02-15T00:25:24.061Z,99.99
2018-02-15T00:26:24.048Z,99.99
2018-02-15T00:27:23.772Z,99.95
2018-02-15T00:28:23.757Z,99.76
2018-02-15T00:29:23.996Z,99.85
2018-02-15T00:30:23.978Z,99.95
2018-02-15T00:31:23.962Z,99.99
2018-02-15T00:32:23.691Z,99.99
2018-02-15T00:33:23.927Z,99.85
2018-02-15T00:34:23.914Z,99.47
2018-02-15T00:35:23.639Z,99.57
2018-02-15T00:36:23.875Z,99.38
2018-02-15T00:37:23.604Z,99.47
2018-02-15T00:38:23.841Z,99.19
2018-02-15T00:39:23.828Z,99.28
2018-02-15T00:40:23.808Z,99
2018-02-15T00:41:23.796Z,98.81
2018-02-15T00:42:23.773Z,98.71
2018-02-15T00:43:23.764Z,98.9
2018-02-15T00:44:23.741Z,98.81
2018-02-15T00:45:23.725Z,99.28
2018-02-15T00:46:23.710Z,99.28
2018-02-15T00:47:23.693Z,99.28
2018-02-15T00:48:23.676Z,99.19
2018-02-15T00:49:23.662Z,99.19
2018-02-15T00:50:23.642Z,98.9
2018-02-15T00:51:23.623Z,99.09
2018-02-15T00:52:23.605Z,99.09
2018-02-15T00:53:23.593Z,99.19
2018-02-15T00:54:23.579Z,98.9
2018-02-15T00:55:23.304Z,99.09
2018-02-15T00:56:23.545Z,99.28
2018-02-15T00:57:23.539Z,99
2018-02-15T00:58:23.508Z,99.38
2018-02-15T00:59:23.238Z,98.52
2018-02-15T01:00:23.472Z,98.81
2018-02-15T01:01:23.455Z,98.62
2018-02-15T01:02:23.186Z,98.71
2018-02-15T01:03:23.170Z,98.71
2018-02-15T01:04:23.407Z,98.71
2018-02-15T01:05:23.388Z,99.09
2018-02-15T01:06:23.371Z,99.28
2018-02-15T01:07:23.355Z,99.09
2018-02-15T01:08:23.339Z,99
2018-02-15T01:09:23.320Z,99.66
2018-02-15T01:10:23.305Z,99.66
2018-02-15T01:11:23.290Z,99.47
2018-02-15T01:12:23.273Z,99.19
2018-02-15T01:13:23.253Z,98.9
2018-02-15T01:14:23.240Z,98.81
2018-02-15T01:15:23.227Z,98.62
2018-02-15T01:16:23.202Z,99.09
2018-02-15T01:17:23.191Z,99.57
2018-02-15T01:18:23.174Z,99.47
2018-02-15T01:19:22.902Z,99.14
2018-02-15T01:20:23.138Z,99.89
2018-02-15T01:21:22.865Z,99.99
2018-02-15T01:22:22.850Z,99.95
2018-02-15T01:23:23.087Z,99.71
2018-02-15T01:24:23.070Z,99.61
2018-02-15T01:25:22.800Z,99.99
2018-02-15T01:26:23.038Z,99.89
2018-02-15T01:27:23.025Z,99.99
2018-02-15T01:28:23.001Z,99.8
2018-02-15T01:29:22.733Z,99.95
2018-02-15T01:30:22.968Z,99.8
2018-02-15T01:31:22.950Z,99.89
2018-02-15T01:32:23.182Z,99.99
2018-02-15T01:33:22.918Z,99.95
2018-02-15T01:34:22.646Z,99.99
2018-02-15T01:35:22.881Z,99.8
2018-02-15T01:36:22.907Z,99.8
2018-02-15T01:37:22.851Z,99.99
2018-02-15T01:38:22.832Z,99.99
2018-02-15T01:39:22.562Z,99.99
2018-02-15T01:40:22.797Z,99.99
2018-02-15T01:41:22.790Z,99.99
2018-02-15T01:42:22.767Z,99.99
2018-02-15T01:43:22.749Z,99.99
2018-02-15T01:44:22.476Z,99.99
2018-02-15T01:45:22.714Z,99.99
2018-02-15T01:46:22.444Z,99.99
2018-02-15T01:47:22.681Z,99.99
2018-02-15T01:48:22.662Z,99.99
2018-02-15T01:49:22.644Z,99.99
2018-02-15T01:50:22.629Z,99.99
2018-02-15T01:51:22.612Z,99.99
2018-02-15T01:52:22.593Z,99.99
2018-02-15T01:53:22.577Z,99.89
2018-02-15T01:54:22.558Z,99.99
2018-02-15T01:55:22.547Z,99.76
2018-02-15T01:56:22.272Z,99.99
2018-02-15T01:57:22.255Z,99.85
2018-02-15T01:58:22.493Z,99.19
2018-02-15T01:59:22.480Z,99.57
2018-02-15T02:00:22.459Z,99.23
2018-02-15T02:01:22.445Z,99.42
2018-02-15T02:02:22.424Z,99.23
2018-02-15T02:03:22.662Z,99.23
2018-02-15T02:04:22.396Z,99.99
2018-02-15T02:05:22.376Z,99.99
2018-02-15T02:06:22.357Z,99.99
2018-02-15T02:07:22.340Z,99.89
2018-02-15T02:08:22.392Z,99.52
2018-02-15T02:09:22.308Z,99.61
2018-02-15T02:10:22.287Z,99.99
2018-02-15T02:11:22.272Z,99.99
2018-02-15T02:12:22.261Z,99.99
2018-02-15T02:13:22.237Z,99.89
2018-02-15T02:14:21.967Z,99.89
2018-02-15T02:15:22.207Z,99.76
2018-02-15T02:16:21.932Z,99.85
2018-02-15T02:17:22.170Z,99.95
2018-02-15T02:18:22.150Z,99.99
2018-02-15T02:19:22.174Z,99.99
2018-02-15T02:20:21.865Z,99.99
2018-02-15T02:21:22.099Z,99.66
2018-02-15T02:22:22.091Z,99.95
2018-02-15T02:23:22.067Z,99.76
2018-02-15T02:24:21.797Z,99.47
2018-02-15T02:25:22.031Z,99.47
2018-02-15T02:26:22.015Z,99.47
2018-02-15T02:27:21.998Z,99
2018-02-15T02:28:21.979Z,99.19
2018-02-15T02:29:21.964Z,99.38
2018-02-15T02:30:21.959Z,98.62
2018-02-15T02:31:21.934Z,98.81
2018-02-15T02:32:21.915Z,99.23
2018-02-15T02:33:21.900Z,99.04
2018-02-15T02:34:21.626Z,99.61
2018-02-15T02:35:21.861Z,99.33
2018-02-15T02:36:21.846Z,99.42
2018-02-15T02:37:21.834Z,99.61
2018-02-15T02:38:21.815Z,99.99
2018-02-15T02:39:21.796Z,99.89
2018-02-15T02:40:21.779Z,99.71
2018-02-15T02:41:21.768Z,99.8
2018-02-15T02:42:21.745Z,99.89
2018-02-15T02:43:21.731Z,99.99
2018-02-15T02:44:21.708Z,99.89
2018-02-15T02:45:21.698Z,99.99
2018-02-15T02:46:21.675Z,99.8
2018-02-15T02:47:21.660Z,99.89
2018-02-15T02:48:21.639Z,99.8
2018-02-15T02:49:21.625Z,99.61
2018-02-15T02:50:21.607Z,99.99
2018-02-15T02:51:21.595Z,99.99
2018-02-15T02:52:21.581Z,99.99
2018-02-15T02:53:21.554Z,99.99
2018-02-15T02:54:21.543Z,99.99
2018-02-15T02:55:21.528Z,99.99
2018-02-15T02:56:21.511Z,99.99
2018-02-15T02:57:21.486Z,99.99
2018-02-15T02:58:21.472Z,99.99
2018-02-15T02:59:21.453Z,99.99
2018-02-15T03:00:21.437Z,99.99
2018-02-15T03:01:21.425Z,99.99
2018-02-15T03:02:21.407Z,99.99
2018-02-15T03:03:21.385Z,99.99
2018-02-15T03:04:21.366Z,99.99
2018-02-15T03:05:21.352Z,99.99
2018-02-15T03:06:21.333Z,99.99
2018-02-15T03:07:21.063Z,99.99
2018-02-15T03:08:21.301Z,99.99
2018-02-15T03:09:21.282Z,99.99
2018-02-15T03:10:21.264Z,99.99
2018-02-15T03:11:21.246Z,99.89
2018-02-15T03:12:21.232Z,99.89
2018-02-15T03:13:21.227Z,99.85
2018-02-15T03:14:21.201Z,99.8
2018-02-15T03:15:21.180Z,99.89
2018-02-15T03:16:21.161Z,99.99
2018-02-15T03:17:21.146Z,99.89
2018-02-15T03:18:21.127Z,99.99
2018-02-15T03:19:21.110Z,99.99
2018-02-15T03:20:21.094Z,99.57
2018-02-15T03:21:21.077Z,99.38
2018-02-15T03:22:21.065Z,99.28
2018-02-15T03:23:21.044Z,99.66
2018-02-15T03:24:21.026Z,99.09
2018-02-15T03:25:20.757Z,99.19
2018-02-15T03:26:20.992Z,99.19
2018-02-15T03:27:20.972Z,99
2018-02-15T03:28:20.957Z,99.57
2018-02-15T03:29:20.941Z,99.85
2018-02-15T03:30:20.928Z,99.66
2018-02-15T03:31:20.910Z,99.57
2018-02-15T03:32:20.891Z,99.28
2018-02-15T03:33:20.876Z,99.66
2018-02-15T03:34:20.859Z,99.57
2018-02-15T03:35:20.841Z,99.47
2018-02-15T03:36:20.827Z,99
2018-02-15T03:37:20.805Z,99.28
2018-02-15T03:38:20.537Z,99.28
2018-02-15T03:39:20.771Z,99.19
2018-02-15T03:40:20.755Z,98.43
2018-02-15T03:41:20.735Z,98.71
2018-02-15T03:42:20.725Z,98.81
2018-02-15T03:43:20.701Z,99.28
2018-02-15T03:44:20.435Z,99.09
2018-02-15T03:45:20.669Z,99.47
2018-02-15T03:46:20.657Z,99.28
2018-02-15T03:47:20.636Z,99.57
2018-02-15T03:48:20.615Z,99.28
2018-02-15T03:49:20.600Z,99.28
2018-02-15T03:50:20.588Z,98.43
2018-02-15T03:51:20.568Z,98.81
2018-02-15T03:52:20.554Z,99.19
2018-02-15T03:53:20.278Z,99.09
2018-02-15T03:54:20.263Z,99.28
2018-02-15T03:55:20.499Z,98.43
2018-02-15T03:56:20.483Z,98.52
2018-02-15T03:57:20.466Z,99
2018-02-15T03:58:20.452Z,98.81
2018-02-15T03:59:20.433Z,99.04
2018-02-15T04:00:20.422Z,98.81
2018-02-15T04:01:20.400Z,98.71
2018-02-15T04:02:20.383Z,98.76
2018-02-15T04:03:20.372Z,99.28
2018-02-15T04:04:20.352Z,98.95
2018-02-15T04:05:20.331Z,99.14
2018-02-15T04:06:20.312Z,99.23
2018-02-15T04:07:20.294Z,99.28
2018-02-15T04:08:20.275Z,99.28
2018-02-15T04:09:20.264Z,99.04
2018-02-15T04:10:20.247Z,99.04
2018-02-15T04:11:20.230Z,99.14
2018-02-15T04:12:20.212Z,99.04
2018-02-15T04:13:20.193Z,98.95
2018-02-15T04:14:19.923Z,99.04
2018-02-15T04:15:20.162Z,99.14
2018-02-15T04:16:20.144Z,99.52
2018-02-15T04:17:20.125Z,99.33
2018-02-15T04:18:20.109Z,99.52
2018-02-15T04:19:20.093Z,99.33
2018-02-15T04:20:20.087Z,99.99
2018-02-15T04:21:20.059Z,99.8
2018-02-15T04:22:20.040Z,99.99
2018-02-15T04:23:20.023Z,99.99
2018-02-15T04:24:19.751Z,99.89
2018-02-15T04:25:19.997Z,99.8
2018-02-15T04:26:19.972Z,99.89
2018-02-15T04:27:19.955Z,99.89
2018-02-15T04:28:19.937Z,99.99
2018-02-15T04:29:19.924Z,99.71
2018-02-15T04:30:19.908Z,99.99
2018-02-15T04:31:19.885Z,99.8
2018-02-15T04:32:19.869Z,99.71
2018-02-15T04:33:19.854Z,99.99
2018-02-15T04:34:19.835Z,99.99
2018-02-15T04:35:19.818Z,99.99
2018-02-15T04:36:19.547Z,99.71
2018-02-15T04:37:19.785Z,99.8
2018-02-15T04:38:19.766Z,99.8
2018-02-15T04:39:19.998Z,99.99
2018-02-15T04:40:19.732Z,99.8
2018-02-15T04:41:19.713Z,99.8
2018-02-15T04:42:19.700Z,99.71
2018-02-15T04:43:19.682Z,99.99
2018-02-15T04:44:19.665Z,99.99
2018-02-15T04:45:19.653Z,99.71
2018-02-15T04:46:19.628Z,99.99
2018-02-15T04:47:19.618Z,99.23
2018-02-15T04:48:19.597Z,98.95
2018-02-15T04:49:19.323Z,99.33
2018-02-15T04:50:19.567Z,99.23
2018-02-15T04:51:19.544Z,99.23
2018-02-15T04:52:19.525Z,99.99
2018-02-15T04:53:19.507Z,99.99
2018-02-15T04:54:19.238Z,99.8
2018-02-15T04:55:19.221Z,99.99
2018-02-15T04:56:19.459Z,99.8
2018-02-15T04:57:19.440Z,99.89
2018-02-15T04:58:19.425Z,99.61
2018-02-15T04:59:19.404Z,99.8
2018-02-15T05:00:19.390Z,99.89
2018-02-15T05:01:19.372Z,99.71
2018-02-15T05:02:19.359Z,99.99
2018-02-15T05:03:19.336Z,99.99
2018-02-15T05:04:19.320Z,99.99
2018-02-15T05:05:19.305Z,99.89
2018-02-15T05:06:19.290Z,99.89
2018-02-15T05:07:19.015Z,99.99
2018-02-15T05:08:19.254Z,99.99
2018-02-15T05:09:19.236Z,99.99
2018-02-15T05:10:18.965Z,99.99
2018-02-15T05:11:19.198Z,99.8
2018-02-15T05:12:18.933Z,99.99
2018-02-15T05:13:19.165Z,99.99
2018-02-15T05:14:19.150Z,99.99
2018-02-15T05:15:19.132Z,99.8
2018-02-15T05:16:19.115Z,99.8
2018-02-15T05:17:19.099Z,99.99
2018-02-15T05:18:19.079Z,99.99
2018-02-15T05:19:19.064Z,99.89
2018-02-15T05:20:19.044Z,99.89
2018-02-15T05:21:19.030Z,99.8
2018-02-15T05:22:19.013Z,99.8
2018-02-15T05:23:18.993Z,99.8
2018-02-15T05:24:18.989Z,99.52
2018-02-15T05:25:18.962Z,99.89
2018-02-15T05:26:18.941Z,99.52
2018-02-15T05:27:18.923Z,99.89
2018-02-15T05:28:18.909Z,99.71
2018-02-15T05:29:18.892Z,99.52
2018-02-15T05:30:18.621Z,99.99
2018-02-15T05:31:18.856Z,99.76
2018-02-15T05:32:18.843Z,99.57
2018-02-15T05:33:18.569Z,99.8
2018-02-15T05:34:18.804Z,99.76
2018-02-15T05:35:18.534Z,99.85
2018-02-15T05:36:18.772Z,99.38
2018-02-15T05:37:18.500Z,99.28
2018-02-15T05:38:18.737Z,99.23
2018-02-15T05:39:18.723Z,99.71
2018-02-15T05:40:18.710Z,99.28
2018-02-15T05:41:18.686Z,99.61
2018-02-15T05:42:18.671Z,99.57
2018-02-15T05:43:18.660Z,99.23
2018-02-15T05:44:18.636Z,99.61
2018-02-15T05:45:18.365Z,99.99
2018-02-15T05:46:18.603Z,99.89
2018-02-15T05:47:18.584Z,99.71
2018-02-15T05:48:18.568Z,99.85
2018-02-15T05:49:18.553Z,99.8
2018-02-15T05:50:18.279Z,99.95
2018-02-15T05:51:18.520Z,99.99
2018-02-15T05:52:18.500Z,99.85
2018-02-15T05:53:18.227Z,99.89
2018-02-15T05:54:18.467Z,99.76
2018-02-15T05:55:18.196Z,99.99
2018-02-15T05:56:18.466Z,99.85
2018-02-15T05:57:18.415Z,99.85
2018-02-15T05:58:18.150Z,99.99
2018-02-15T05:59:18.380Z,99.99
2018-02-15T06:00:18.360Z,99.09
2018-02-15T06:01:18.347Z,99.57
2018-02-15T06:02:18.327Z,99.66
2018-02-15T06:03:18.309Z,99.57
2018-02-15T06:04:18.039Z,99.19
2018-02-15T06:05:18.276Z,99.28
2018-02-15T06:06:18.259Z,99.57
2018-02-15T06:07:17.990Z,99.28
2018-02-15T06:08:17.974Z,99.33
2018-02-15T06:09:18.207Z,99.47
2018-02-15T06:10:18.198Z,99.09
2018-02-15T06:11:18.174Z,99.99
2018-02-15T06:12:18.158Z,99.47
2018-02-15T06:13:18.144Z,99.38
2018-02-15T06:14:17.872Z,99.57
2018-02-15T06:15:18.108Z,99.99
2018-02-15T06:16:18.093Z,99.99
2018-02-15T06:17:18.072Z,99.19
2018-02-15T06:18:18.057Z,99.99
2018-02-15T06:19:18.038Z,99.38
2018-02-15T06:20:18.024Z,99.38
2018-02-15T06:21:18.004Z,99.47
2018-02-15T06:22:17.735Z,99.66
2018-02-15T06:23:17.971Z,99.47
2018-02-15T06:24:17.957Z,99.66
2018-02-15T06:25:17.939Z,99.28
2018-02-15T06:26:17.924Z,99.38
2018-02-15T06:27:17.903Z,99.57
2018-02-15T06:28:17.886Z,99.28
2018-02-15T06:29:17.869Z,99.57
2018-02-15T06:30:17.853Z,99.47
2018-02-15T06:31:17.580Z,99.66
2018-02-15T06:32:17.828Z,99.38
2018-02-15T06:33:17.803Z,99.47
2018-02-15T06:34:17.785Z,99.28
2018-02-15T06:35:17.512Z,99.19
2018-02-15T06:36:17.756Z,99.28
2018-02-15T06:37:17.734Z,99.09
2018-02-15T06:38:17.718Z,98.43
2018-02-15T06:39:17.444Z,98.62
2018-02-15T06:40:17.428Z,98.52
2018-02-15T06:41:17.667Z,98.62
2018-02-15T06:42:17.647Z,98.62
2018-02-15T06:43:17.637Z,98.52
2018-02-15T06:44:17.867Z,98.43
2018-02-15T06:45:17.604Z,98.33
2018-02-15T06:46:17.328Z,98.62
2018-02-15T06:47:17.592Z,98.9
2018-02-15T06:48:17.546Z,99
2018-02-15T06:49:17.537Z,98.9
2018-02-15T06:50:17.514Z,98.71
2018-02-15T06:51:17.496Z,98.33
2018-02-15T06:52:17.480Z,98.33
2018-02-15T06:53:17.211Z,98.33
2018-02-15T06:54:17.448Z,97.86
2018-02-15T06:55:17.428Z,97.86
2018-02-15T06:56:17.414Z,97.77
2018-02-15T06:57:17.396Z,97.96
2018-02-15T06:58:17.382Z,98.33
2018-02-15T06:59:17.368Z,98.14
2018-02-15T07:00:17.352Z,98.14
2018-02-15T07:01:17.331Z,98.33
2018-02-15T07:02:17.315Z,98.33
2018-02-15T07:03:17.296Z,97.77
2018-02-15T07:04:17.280Z,97.86
2018-02-15T07:05:17.262Z,97.86
2018-02-15T07:06:17.246Z,97.96
2018-02-15T07:07:17.229Z,98.43
2018-02-15T07:08:16.961Z,98.33
2018-02-15T07:09:16.943Z,97.58
2018-02-15T07:10:17.182Z,97.58
2018-02-15T07:11:17.164Z,97.58
2018-02-15T07:12:17.147Z,96.92
2018-02-15T07:13:17.132Z,97.58
2018-02-15T07:14:17.118Z,97.49
2018-02-15T07:15:17.435Z,97.49
2018-02-15T07:16:17.082Z,97.58
2018-02-15T07:17:17.063Z,97.86
2018-02-15T07:18:17.048Z,98.14
2018-02-15T07:19:17.032Z,97.86
2018-02-15T07:20:17.014Z,97.96
2018-02-15T07:21:16.744Z,98.33
2018-02-15T07:22:16.738Z,97.96
2018-02-15T07:23:16.972Z,97.77
2018-02-15T07:24:16.957Z,98.33
2018-02-15T07:25:16.945Z,98.05
2018-02-15T07:26:16.917Z,98.14
2018-02-15T07:27:16.900Z,98.14
2018-02-15T07:28:16.881Z,98.05
2018-02-15T07:29:16.612Z,98.14
2018-02-15T07:30:16.859Z,97.86
2018-02-15T07:31:16.576Z,97.49
2018-02-15T07:32:16.562Z,97.3
2018-02-15T07:33:16.805Z,97.3
2018-02-15T07:34:16.780Z,97.49
2018-02-15T07:35:16.765Z,97.3
2018-02-15T07:36:16.494Z,97.3
2018-02-15T07:37:16.734Z,97.3
2018-02-15T07:38:16.716Z,97.58
2018-02-15T07:39:16.701Z,97.49
2018-02-15T07:40:16.682Z,97.39
2018-02-15T07:41:16.683Z,97.58
2018-02-15T07:42:16.653Z,97.49
2018-02-15T07:43:16.633Z,97.3
2018-02-15T07:44:16.623Z,97.3
2018-02-15T07:45:16.347Z,97.39
2018-02-15T07:46:16.339Z,97.06
2018-02-15T07:47:16.315Z,96.83
2018-02-15T07:48:17.064Z,96.83
2018-02-15T07:49:16.580Z,96.78
2018-02-15T07:50:16.532Z,97.11
2018-02-15T07:51:16.506Z,97.34
2018-02-15T07:52:16.490Z,97.06
2018-02-15T07:53:16.223Z,96.88
2018-02-15T07:54:16.457Z,96.78
2018-02-15T07:55:16.440Z,96.69
2018-02-15T07:56:16.460Z,96.31
2018-02-15T07:57:16.411Z,96.31
2018-02-15T07:58:16.393Z,95.93
2018-02-15T07:59:16.378Z,95.93
2018-02-15T08:00:16.122Z,95.74
2018-02-15T08:01:16.342Z,95.64
2018-02-15T08:02:16.071Z,95.55
2018-02-15T08:03:16.313Z,94.79
2018-02-15T08:04:16.293Z,94.89
2018-02-15T08:05:16.281Z,94.79
2018-02-15T08:06:16.021Z,94.98
2018-02-15T08:07:15.994Z,94.89
2018-02-15T08:08:15.980Z,94.6
2018-02-15T08:09:16.218Z,94.23
2018-02-15T08:10:15.949Z,94.51
2018-02-15T08:11:16.186Z,94.32
2018-02-15T08:12:16.172Z,94.13
2018-02-15T08:13:16.171Z,94.13
2018-02-15T08:14:16.143Z,94.32
2018-02-15T08:15:16.123Z,94.51
2018-02-15T08:16:16.114Z,94.51
2018-02-15T08:17:15.840Z,93.94
2018-02-15T08:18:16.080Z,93.85
2018-02-15T08:19:16.063Z,93.66
2018-02-15T08:20:15.795Z,93.75
2018-02-15T08:21:15.786Z,94.04
2018-02-15T08:22:16.015Z,93.89
2018-02-15T08:23:16.005Z,93.99
2018-02-15T08:24:15.996Z,93.42
2018-02-15T08:25:15.972Z,93.32
2018-02-15T08:26:15.962Z,92.94
2018-02-15T08:27:15.941Z,93.04
2018-02-15T08:28:15.687Z,92.76
2018-02-15T08:29:15.911Z,93.23
2018-02-15T08:30:15.943Z,92.76
2018-02-15T08:31:15.882Z,92.85
2018-02-15T08:32:15.883Z,93.04
2018-02-15T08:33:15.600Z,93.04
2018-02-15T08:34:15.585Z,93.42
2018-02-15T08:35:15.824Z,92.66
2018-02-15T08:36:15.807Z,92.85
2018-02-15T08:37:15.795Z,92.66
2018-02-15T08:38:15.777Z,92.66
2018-02-15T08:39:15.771Z,92.85
2018-02-15T08:40:15.747Z,92.66
2018-02-15T08:41:15.736Z,92.66
2018-02-15T08:42:15.465Z,93.13
2018-02-15T08:43:15.703Z,93.13
2018-02-15T08:44:15.703Z,92.66
2018-02-15T08:45:15.679Z,92.38
2018-02-15T08:46:15.662Z,92.29
2018-02-15T08:47:15.657Z,92.29
2018-02-15T08:48:15.377Z,91.81
2018-02-15T08:49:15.634Z,91.91
2018-02-15T08:50:15.364Z,91.86
2018-02-15T08:51:15.333Z,91.57
2018-02-15T08:52:15.390Z,92.05
2018-02-15T08:53:15.563Z,91.86
2018-02-15T08:54:15.295Z,91.48
2018-02-15T08:55:15.534Z,91.67
2018-02-15T08:56:15.525Z,91.95
2018-02-15T08:57:15.502Z,91.57
2018-02-15T08:58:15.237Z,91.86
2018-02-15T08:59:15.483Z,91.95
2018-02-15T09:00:15.464Z,91.48
2018-02-15T09:01:15.456Z,91.19
2018-02-15T09:02:15.434Z,90.63
2018-02-15T09:03:15.418Z,91.1
2018-02-15T09:04:15.403Z,90.72
2018-02-15T09:05:15.395Z,90.53
2018-02-15T09:06:15.393Z,90.53
2018-02-15T09:07:15.108Z,90.25
2018-02-15T09:08:15.349Z,90.15
2018-02-15T09:09:15.080Z,90.06
2018-02-15T09:10:15.329Z,90.34
2018-02-15T09:11:15.305Z,90.53
2018-02-15T09:12:15.090Z,90.72
2018-02-15T09:13:15.042Z,90.15
2018-02-15T09:14:15.264Z,90.63
2018-02-15T09:15:14.998Z,90.15
2018-02-15T09:16:15.237Z,90.34
2018-02-15T09:17:15.243Z,90.81
2018-02-15T09:18:14.994Z,90.72
2018-02-15T09:19:15.196Z,90.63
2018-02-15T09:20:15.182Z,90.72
2018-02-15T09:21:15.177Z,90.25
2018-02-15T09:22:15.157Z,90.44
2018-02-15T09:23:15.145Z,91.19
2018-02-15T09:24:15.131Z,91.48
2018-02-15T09:25:14.890Z,91.57
2018-02-15T09:26:15.109Z,90.81
2018-02-15T09:27:15.090Z,90.91
2018-02-15T09:28:15.086Z,90.58
2018-02-15T09:29:15.060Z,89.91
2018-02-15T09:30:15.048Z,89.91
2018-02-15T09:31:15.034Z,90.2
2018-02-15T09:32:15.027Z,90.01
2018-02-15T09:33:15.007Z,90.2
2018-02-15T09:34:14.736Z,89.91
2018-02-15T09:35:14.988Z,89.72
2018-02-15T09:36:14.968Z,89.63
2018-02-15T09:37:14.950Z,89.53
2018-02-15T09:38:14.934Z,89.72
2018-02-15T09:39:14.925Z,89.49
2018-02-15T09:40:14.910Z,90.15
2018-02-15T09:41:14.912Z,90.72
2018-02-15T09:42:14.914Z,90.63
2018-02-15T09:43:14.872Z,90.34
2018-02-15T09:44:14.616Z,90.58
2018-02-15T09:45:14.862Z,90.34
2018-02-15T09:46:14.594Z,90.39
2018-02-15T09:47:14.858Z,90.29
2018-02-15T09:48:14.840Z,89.91
2018-02-15T09:49:14.811Z,90.1
2018-02-15T09:50:14.776Z,89.63
2018-02-15T09:51:14.759Z,90.29
2018-02-15T09:52:14.746Z,89.53
2018-02-15T09:53:14.733Z,89.44
2018-02-15T09:54:14.719Z,89.44
2018-02-15T09:55:14.453Z,89.06
2018-02-15T09:56:14.695Z,89.63
2018-02-15T09:57:14.677Z,89.53
2018-02-15T09:58:14.668Z,89.82
2018-02-15T09:59:14.653Z,89.77
2018-02-15T10:00:14.643Z,90.15
2018-02-15T10:01:14.370Z,89.87
2018-02-15T10:02:14.611Z,89.58
2018-02-15T10:03:14.345Z,90.44
2018-02-15T10:04:14.599Z,90.34
2018-02-15T10:05:14.593Z,90.53
2018-02-15T10:06:14.316Z,90.25
2018-02-15T10:07:14.549Z,90.15
2018-02-15T10:08:14.535Z,90.63
2018-02-15T10:09:14.266Z,90.63
2018-02-15T10:10:14.508Z,90.44
2018-02-15T10:11:14.488Z,90.34
2018-02-15T10:12:14.225Z,90.53
2018-02-15T10:13:14.478Z,90.44
2018-02-15T10:14:14.466Z,91
2018-02-15T10:15:14.434Z,91
2018-02-15T10:16:14.421Z,91
2018-02-15T10:17:14.411Z,91
2018-02-15T10:18:14.390Z,91.57
2018-02-15T10:19:14.377Z,91.43
2018-02-15T10:20:14.107Z,91.62
2018-02-15T10:21:14.351Z,91.53
2018-02-15T10:22:14.337Z,91.81
2018-02-15T10:23:14.071Z,91.72
2018-02-15T10:24:14.303Z,91.53
2018-02-15T10:25:14.037Z,92.19
2018-02-15T10:26:14.276Z,92.76
2018-02-15T10:27:14.295Z,92.85
2018-02-15T10:28:14.248Z,92.85
2018-02-15T10:29:14.233Z,92.76
2018-02-15T10:30:14.216Z,92.76
2018-02-15T10:31:14.218Z,92.85
2018-02-15T10:32:14.198Z,92.38
2018-02-15T10:33:13.921Z,92.05
2018-02-15T10:34:14.161Z,91.76
2018-02-15T10:35:14.144Z,91.57
2018-02-15T10:36:13.878Z,91.76
2018-02-15T10:37:13.864Z,91.19
2018-02-15T10:38:14.100Z,91
2018-02-15T10:39:14.087Z,91.38
2018-02-15T10:40:14.086Z,91.29
2018-02-15T10:41:14.057Z,91.38
2018-02-15T10:42:14.049Z,91.38
2018-02-15T10:43:14.028Z,91.38
2018-02-15T10:44:14.019Z,90.91
2018-02-15T10:45:13.749Z,91.76
2018-02-15T10:46:13.988Z,91.48
2018-02-15T10:47:13.972Z,91.38
2018-02-15T10:48:13.701Z,91.76
2018-02-15T10:49:13.941Z,91.57
2018-02-15T10:50:13.926Z,91.76
2018-02-15T10:51:13.913Z,91.38
2018-02-15T10:52:13.898Z,91.19
2018-02-15T10:53:13.890Z,91.29
2018-02-15T10:54:13.871Z,91.67
2018-02-15T10:55:13.856Z,91.76
2018-02-15T10:56:13.843Z,91.76
2018-02-15T10:57:13.829Z,91.95
2018-02-15T10:58:13.823Z,91.67
2018-02-15T10:59:13.802Z,91.86
2018-02-15T11:00:13.788Z,91.76
2018-02-15T11:01:13.774Z,91.76
2018-02-15T11:02:13.500Z,91.67
2018-02-15T11:03:13.750Z,91.95
2018-02-15T11:04:13.731Z,91.95
2018-02-15T11:05:13.730Z,91.76
2018-02-15T11:06:13.478Z,91.76
2018-02-15T11:07:13.692Z,91.86
2018-02-15T11:08:13.426Z,91.19
2018-02-15T11:09:13.658Z,91.67
2018-02-15T11:10:13.641Z,91.57
2018-02-15T11:11:13.624Z,91.29
2018-02-15T11:12:13.618Z,91.48
2018-02-15T11:13:13.596Z,91.67
2018-02-15T11:14:13.583Z,91.29
2018-02-15T11:15:13.569Z,90.72
2018-02-15T11:16:13.556Z,90.81
2018-02-15T11:17:13.543Z,90.67
2018-02-15T11:18:13.525Z,90.58
2018-02-15T11:19:13.514Z,90.1
2018-02-15T11:20:13.498Z,90.58
2018-02-15T11:21:13.483Z,90.29
2018-02-15T11:22:13.472Z,90.1
2018-02-15T11:23:13.457Z,89.53
2018-02-15T11:24:13.442Z,88.96
2018-02-15T11:25:13.427Z,88.96
2018-02-15T11:26:13.412Z,88.78
2018-02-15T11:27:13.440Z,88.68
2018-02-15T11:28:13.386Z,88.11
2018-02-15T11:29:13.372Z,88.21
2018-02-15T11:30:13.360Z,88.3
2018-02-15T11:31:13.342Z,87.87
2018-02-15T11:32:13.333Z,87.16
2018-02-15T11:33:13.322Z,87.3
2018-02-15T11:34:13.052Z,86.98
2018-02-15T11:35:13.289Z,87.35
2018-02-15T11:36:13.278Z,87.54
2018-02-15T11:37:13.273Z,87.16
2018-02-15T11:38:13.264Z,87.92
2018-02-15T11:39:13.242Z,87.73
2018-02-15T11:40:13.241Z,87.64
2018-02-15T11:41:13.206Z,87.45
2018-02-15T11:42:12.941Z,87.92
2018-02-15T11:43:12.944Z,87.54
2018-02-15T11:44:12.913Z,87.83
2018-02-15T11:45:13.154Z,87.92
2018-02-15T11:46:13.141Z,87.73
2018-02-15T11:47:13.122Z,87.83
2018-02-15T11:48:12.868Z,87.83
2018-02-15T11:49:13.111Z,87.83
2018-02-15T11:50:13.084Z,88.02
2018-02-15T11:51:12.820Z,87.73
2018-02-15T11:52:13.057Z,88.06
2018-02-15T11:53:13.047Z,87.4
2018-02-15T11:54:13.029Z,86.64
2018-02-15T11:55:13.022Z,87.3
2018-02-15T11:56:13.012Z,87.3
2018-02-15T11:57:12.991Z,86.83
2018-02-15T11:58:12.989Z,86.93
2018-02-15T11:59:12.976Z,86.45
2018-02-15T12:00:12.950Z,86.26
2018-02-15T12:01:12.938Z,86.45
2018-02-15T12:02:12.922Z,86.16
2018-02-15T12:03:12.910Z,86.26
2018-02-15T12:04:12.898Z,86.35
2018-02-15T12:05:12.971Z,86.35
2018-02-15T12:06:12.614Z,86.45
2018-02-15T12:07:12.857Z,85.97
2018-02-15T12:08:12.851Z,85.41
2018-02-15T12:09:12.832Z,85.97
2018-02-15T12:10:12.814Z,85.88
2018-02-15T12:11:12.806Z,85.97
2018-02-15T12:12:12.786Z,86.16
2018-02-15T12:13:12.775Z,86.07
2018-02-15T12:14:12.507Z,85.41
2018-02-15T12:15:12.752Z,85.41
2018-02-15T12:16:12.736Z,85.22
2018-02-15T12:17:12.722Z,85.22
2018-02-15T12:18:12.713Z,85.13
2018-02-15T12:19:12.700Z,85.03
2018-02-15T12:20:12.706Z,85.22
2018-02-15T12:21:12.736Z,85.22
2018-02-15T12:22:12.655Z,85.03
2018-02-15T12:23:12.646Z,85.03
2018-02-15T12:24:12.635Z,85.13
2018-02-15T12:25:12.617Z,84.94
2018-02-15T12:26:12.601Z,84.74
2018-02-15T12:27:12.589Z,84.94
2018-02-15T12:28:12.577Z,84.94
2018-02-15T12:29:12.563Z,85.03
2018-02-15T12:30:12.554Z,85.22
2018-02-15T12:31:12.283Z,85.03
2018-02-15T12:32:12.524Z,84.84
2018-02-15T12:33:12.511Z,84.94
2018-02-15T12:34:12.495Z,84.84
2018-02-15T12:35:12.483Z,85.5
2018-02-15T12:36:12.218Z,84.88
2018-02-15T12:37:12.459Z,84.78
2018-02-15T12:38:12.468Z,84.12
2018-02-15T12:39:12.178Z,84.31
2018-02-15T12:40:12.431Z,83.74
2018-02-15T12:41:12.434Z,84.12
2018-02-15T12:42:12.415Z,83.84
2018-02-15T12:43:12.126Z,83.74
2018-02-15T12:44:12.114Z,83.84
2018-02-15T12:45:12.360Z,83.74
2018-02-15T12:46:12.348Z,83.84
2018-02-15T12:47:12.083Z,83.74
2018-02-15T12:48:12.108Z,83.55
2018-02-15T12:49:12.326Z,83.36
2018-02-15T12:50:12.296Z,82.7
2018-02-15T12:51:12.280Z,82.79
2018-02-15T12:52:12.276Z,82.7
2018-02-15T12:53:12.262Z,83.08
2018-02-15T12:54:12.241Z,82.98
2018-02-15T12:55:11.981Z,83.36